Time;durP1;ratioP1;P1;durP2;ratioP2;P2;SDS_P1;SDS_P2;PMS_P1;PMS_P2;Temp;Humidity;BMP_temperature;BMP_pressure;BME280_temperature;BME280_humidity;BME280_pressure;Samples;Min_cycle;Max_cycle;Signal;HPM_P1;HPM_P2
2023/11/27 00:00:49;;;;;;;;;;;;;;;0.60;100.00;100299.59;5030283;28;19929;-58
2023/11/27 00:03:16;;;;;;;;;;;;;;;0.49;100.00;100292.91;5032360;28;19933;-56
2023/11/27 00:05:43;;;;;;;;;;;;;;;0.45;100.00;100296.47;5011537;28;19929;-56
2023/11/27 00:08:10;;;;;;;;;;;;;;;0.46;100.00;100294.75;5032120;28;20381;-59
2023/11/27 00:10:41;;;;;;;;;;;;;;;0.46;100.00;100290.41;5018330;28;19966;-58
2023/11/27 00:13:09;;;;;;;;;;;;;;;0.47;100.00;100288.66;5033961;28;19979;-58
2023/11/27 00:15:36;;;;;;;;;;;;;;;0.48;100.00;100288.63;5032529;28;19925;-60
2023/11/27 00:18:03;;;;;;;;;;;;;;;0.51;100.00;100292.91;5026231;28;19944;-57
2023/11/27 00:20:30;;;;;;;;;;;;;;;0.52;100.00;100283.38;5036279;28;19929;-59
2023/11/27 00:22:57;;;;;;;;;;;;;;;0.51;100.00;100287.72;5029352;28;19950;-57
2023/11/27 00:25:25;;;;;;;;;;;;;;;0.56;100.00;100285.03;5036117;28;20400;-56
2023/11/27 00:27:53;;;;;;;;;;;;;;;0.55;100.00;100286.75;5029095;28;19974;-57
2023/11/27 00:30:20;;;;;;;;;;;;;;;0.56;100.00;100288.47;5032032;28;20378;-56
2023/11/27 00:32:50;;;;;;;;;;;;;;;0.57;100.00;100281.53;5029476;28;19943;-57
2023/11/27 00:35:17;;;;;;;;;;;;;;;0.57;100.00;100278.94;5013737;28;20562;-56
2023/11/27 00:37:44;;;;;;;;;;;;;;;0.57;100.00;100278.94;5028157;28;19933;-55
2023/11/27 00:40:11;;;;;;;;;;;;;;;0.59;100.00;100277.19;5026377;28;20309;-57
2023/11/27 00:42:39;;;;;;;;;;;;;;;0.62;100.00;100274.50;5029100;28;19929;-56
2023/11/27 00:45:06;;;;;;;;;;;;;;;0.63;100.00;100284.84;5032596;28;20444;-57
2023/11/27 00:47:34;;;;;;;;;;;;;;;0.64;100.00;100277.94;5032795;28;19970;-55
2023/11/27 00:50:03;;;;;;;;;;;;;;;0.65;100.00;100277.88;5026760;28;20421;-53
2023/11/27 00:52:30;;;;;;;;;;;;;;;0.65;100.00;100280.47;5029514;28;19931;-58
2023/11/27 00:54:58;;;;;;;;;;;;;;;0.67;100.00;100280.41;5012164;28;19925;-59
2023/11/27 00:57:25;;;;;;;;;;;;;;;0.68;100.00;100279.56;5030095;28;19925;-59
2023/11/27 00:59:52;;;;;;;;;;;;;;;0.69;100.00;100279.50;5028934;28;20452;-56
2023/11/27 01:02:19;;;;;;;;;;;;;;;0.72;100.00;100275.97;5026977;28;20235;-59
2023/11/27 01:04:47;;;;;;;;;;;;;;;0.70;100.00;100277.75;5026093;28;19933;-55
2023/11/27 01:07:14;;;;;;;;;;;;;;;0.68;100.00;100270.03;4989709;28;19949;-56
2023/11/27 01:09:41;;;;;;;;;;;;;;;0.71;100.00;100274.28;5027492;28;19933;-55
2023/11/27 01:12:08;;;;;;;;;;;;;;;0.72;100.00;100268.19;5028085;28;19932;-59
2023/11/27 01:14:36;;;;;;;;;;;;;;;0.74;100.00;100264.69;5032692;28;19929;-58
2023/11/27 01:17:04;;;;;;;;;;;;;;;0.79;100.00;100258.56;5024373;28;19925;-57
2023/11/27 01:19:31;;;;;;;;;;;;;;;0.85;100.00;100264.44;5032999;28;19925;-56
2023/11/27 01:21:58;;;;;;;;;;;;;;;0.84;100.00;100262.72;5031437;28;19933;-57
2023/11/27 01:24:26;;;;;;;;;;;;;;;0.85;100.00;100261.84;5033507;28;20282;-57
2023/11/27 01:26:53;;;;;;;;;;;;;;;0.85;100.00;100258.41;5033678;28;19947;-57
2023/11/27 01:29:23;;;;;;;;;;;;;;;0.85;100.00;100250.63;5034980;28;20399;-58
2023/11/27 01:31:50;;;;;;;;;;;;;;;0.88;100.00;100250.56;5032660;28;19933;-55
2023/11/27 01:34:17;;;;;;;;;;;;;;;0.89;100.00;100255.69;5032033;28;20361;-56
2023/11/27 01:36:45;;;;;;;;;;;;;;;0.92;100.00;100247.84;5027206;28;20356;-56
2023/11/27 01:39:12;;;;;;;;;;;;;;;0.92;100.00;100247.84;5010713;28;19933;-55
2023/11/27 01:41:39;;;;;;;;;;;;;;;0.91;100.00;100248.75;5026275;28;19925;-58
2023/11/27 01:44:06;;;;;;;;;;;;;;;0.91;100.00;100245.31;5029803;28;19925;-58
2023/11/27 01:46:35;;;;;;;;;;;;;;;0.93;100.00;100241.75;5027320;28;19925;-56
2023/11/27 01:49:02;;;;;;;;;;;;;;;0.92;100.00;100240.06;5011517;28;19940;-58
2023/11/27 01:51:29;;;;;;;;;;;;;;;0.93;100.00;100236.59;5028293;28;19929;-59
2023/11/27 01:53:57;;;;;;;;;;;;;;;0.89;100.00;100232.38;5047454;22;20159;-61
2023/11/27 01:56:24;;;;;;;;;;;;;;;0.89;100.00;100231.50;5084790;28;20019;-60
2023/11/27 01:58:52;;;;;;;;;;;;;;;0.90;100.00;100228.03;5106067;28;20411;-62
2023/11/27 02:01:19;;;;;;;;;;;;;;;0.92;100.00;100232.28;5080243;28;19968;-60
2023/11/27 02:03:46;;;;;;;;;;;;;;;0.96;100.00;100225.28;5071327;28;20068;-56
2023/11/27 02:06:13;;;;;;;;;;;;;;;0.94;100.00;100225.31;5067918;28;19946;-59
2023/11/27 02:08:41;;;;;;;;;;;;;;;0.97;100.00;100221.81;5055300;28;19929;-62
2023/11/27 02:11:08;;;;;;;;;;;;;;;1.01;100.00;100220.84;5056167;28;19929;-58
2023/11/27 02:13:35;;;;;;;;;;;;;;;0.99;100.00;100231.25;5057948;28;19924;-60
2023/11/27 02:16:03;;;;;;;;;;;;;;;1.01;100.00;100229.47;5061286;28;19928;-60
2023/11/27 02:18:30;;;;;;;;;;;;;;;0.95;100.00;100219.25;5065150;28;20354;-58
2023/11/27 02:21:01;;;;;;;;;;;;;;;0.96;100.00;100220.97;5061381;28;20135;-60
2023/11/27 02:23:28;;;;;;;;;;;;;;;0.95;100.00;100215.81;5054073;28;19932;-59
2023/11/27 02:25:58;;;;;;;;;;;;;;;0.92;100.00;100216.75;5059944;28;19942;-61
2023/11/27 02:28:25;;;;;;;;;;;;;;;0.94;100.00;100214.09;5057260;28;19928;-58
2023/11/27 02:30:52;;;;;;;;;;;;;;;0.97;100.00;100214.03;5060257;28;19932;-56
2023/11/27 02:33:19;;;;;;;;;;;;;;;0.96;100.00;100212.34;5065318;28;19933;-60
2023/11/27 02:35:46;;;;;;;;;;;;;;;0.90;100.00;100209.88;5061299;28;19935;-61
2023/11/27 02:38:13;;;;;;;;;;;;;;;0.89;100.00;100209.03;5062904;28;19950;-59
2023/11/27 02:40:40;;;;;;;;;;;;;;;0.87;100.00;100210.00;5055898;28;19954;-61
2023/11/27 02:43:09;;;;;;;;;;;;;;;0.86;100.00;100216.06;5058894;28;19929;-61
2023/11/27 02:45:36;;;;;;;;;;;;;;;0.88;100.00;100215.13;5068141;28;20414;-60
2023/11/27 02:48:03;;;;;;;;;;;;;;;0.88;100.00;100212.53;5066986;28;20726;-59
2023/11/27 02:50:31;;;;;;;;;;;;;;;0.80;100.00;100204.09;5061628;28;19929;-61
2023/11/27 02:52:58;;;;;;;;;;;;;;;0.77;100.00;100209.38;5063745;28;20076;-58
2023/11/27 02:55:27;;;;;;;;;;;;;;;0.72;100.00;100195.66;5062115;28;20725;-62
2023/11/27 02:57:54;;;;;;;;;;;;;;;0.72;100.00;100196.53;5065325;28;19981;-57
2023/11/27 03:00:21;;;;;;;;;;;;;;;0.72;100.00;100195.66;5072302;28;20270;-62
2023/11/27 03:02:48;;;;;;;;;;;;;;;0.70;100.00;100197.47;5074087;28;20026;-59
2023/11/27 03:05:16;;;;;;;;;;;;;;;0.70;100.00;100200.03;5064114;28;19925;-58
2023/11/27 03:07:43;;;;;;;;;;;;;;;0.68;100.00;100194.06;5063676;28;20414;-58
2023/11/27 03:10:10;;;;;;;;;;;;;;;0.69;100.00;100191.44;5071252;28;19978;-58
2023/11/27 03:12:38;;;;;;;;;;;;;;;0.69;100.00;100182.81;5069818;28;19950;-59
2023/11/27 03:15:08;;;;;;;;;;;;;;;0.67;100.00;100177.66;5074616;28;19962;-57
2023/11/27 03:17:35;;;;;;;;;;;;;;;0.69;100.00;100180.22;5067148;28;20390;-58
2023/11/27 03:20:09;;;;;;;;;;;;;;;0.70;100.00;100180.16;5065911;28;20317;-61
2023/11/27 03:22:36;;;;;;;;;;;;;;;0.70;100.00;100176.72;5065048;28;19947;-56
2023/11/27 03:25:04;;;;;;;;;;;;;;;0.72;100.00;100185.28;5061429;28;20421;-59
2023/11/27 03:27:32;;;;;;;;;;;;;;;0.69;100.00;100175.03;5060724;28;19942;-59
2023/11/27 03:29:59;;;;;;;;;;;;;;;0.56;100.00;100176.22;5064802;28;19928;-56
2023/11/27 03:32:31;;;;;;;;;;;;;;;0.57;100.00;100168.41;5064556;28;19924;-58
2023/11/27 03:34:59;;;;;;;;;;;;;;;0.60;100.00;100173.53;5060188;28;19936;-61
2023/11/27 03:37:26;;;;;;;;;;;;;;;0.57;100.00;100170.16;5057536;28;19928;-59
2023/11/27 03:39:53;;;;;;;;;;;;;;;0.57;100.00;100171.00;5062816;28;20394;-61
2023/11/27 03:42:21;;;;;;;;;;;;;;;0.47;100.00;100166.94;5066954;28;19932;-58
2023/11/27 03:44:48;;;;;;;;;;;;;;;0.46;100.00;100160.09;5064183;28;20294;-58
2023/11/27 03:47:25;;;;;;;;;;;;;;;0.48;100.00;100168.66;5072141;28;19925;-60
2023/11/27 03:49:57;;;;;;;;;;;;;;;0.49;100.00;100166.00;5062603;28;20402;-57
2023/11/27 03:52:25;;;;;;;;;;;;;;;0.50;100.00;100162.56;5069911;28;20016;-60
2023/11/27 03:54:52;;;;;;;;;;;;;;;0.54;100.00;100162.44;5063799;28;19925;-59
2023/11/27 03:57:19;;;;;;;;;;;;;;;0.49;100.00;100155.66;5060578;28;19932;-58
2023/11/27 03:59:48;;;;;;;;;;;;;;;0.50;100.00;100157.38;5062751;28;19933;-59
2023/11/27 04:02:15;;;;;;;;;;;;;;;0.48;100.00;100158.28;5059559;28;19925;-57
2023/11/27 04:04:42;;;;;;;;;;;;;;;0.47;100.00;100159.19;5071018;28;19924;-57
2023/11/27 04:07:11;;;;;;;;;;;;;;;0.48;100.00;100166.06;5067081;28;19973;-58
2023/11/27 04:09:38;;;;;;;;;;;;;;;0.44;100.00;100162.69;5077802;28;19943;-59
2023/11/27 04:12:05;;;;;;;;;;;;;;;0.44;100.00;100149.75;5067898;28;20408;-59
2023/11/27 04:14:32;;;;;;;;;;;;;;;0.43;100.00;100149.78;5070122;28;19950;-60
2023/11/27 04:17:01;;;;;;;;;;;;;;;0.46;100.00;100147.97;5058999;28;19932;-59
2023/11/27 04:19:28;;;;;;;;;;;;;;;0.47;100.00;100146.22;5065772;28;19935;-64
2023/11/27 04:21:55;;;;;;;;;;;;;;;0.45;100.00;100146.28;5065370;28;19929;-60
2023/11/27 04:24:23;;;;;;;;;;;;;;;0.44;100.00;100146.31;5069028;28;19928;-58
2023/11/27 04:26:50;;;;;;;;;;;;;;;0.42;100.00;100150.69;5067096;28;20627;-60
2023/11/27 04:29:18;;;;;;;;;;;;;;;0.40;100.00;100149.84;5073275;28;19969;-59
2023/11/27 04:31:45;;;;;;;;;;;;;;;0.43;100.00;100150.63;5066554;28;20354;-60
2023/11/27 04:34:12;;;;;;;;;;;;;;;0.43;100.00;100148.03;5065193;28;19935;-60
2023/11/27 04:36:39;;;;;;;;;;;;;;;0.43;100.00;100152.38;5060515;28;19924;-60
2023/11/27 04:39:10;;;;;;;;;;;;;;;0.43;100.00;100139.44;5062522;28;20554;-62
2023/11/27 04:41:39;;;;;;;;;;;;;;;0.40;100.00;100142.94;5066389;28;19977;-61
2023/11/27 04:44:06;;;;;;;;;;;;;;;0.40;100.00;100132.56;5069113;28;19925;-58
2023/11/27 04:46:33;;;;;;;;;;;;;;;0.48;100.00;100137.56;5073572;28;19954;-59
2023/11/27 04:49:00;;;;;;;;;;;;;;;0.47;100.00;100133.28;5070461;28;19933;-63
2023/11/27 04:51:28;;;;;;;;;;;;;;;0.44;100.00;100130.75;5068426;28;19947;-59
2023/11/27 04:53:55;;;;;;;;;;;;;;;0.44;100.00;100123.84;5074944;28;19931;-60
2023/11/27 04:56:22;;;;;;;;;;;;;;;0.45;100.00;100122.09;5051839;28;19928;-61
2023/11/27 04:58:50;;;;;;;;;;;;;;;0.39;100.00;100117.94;5057063;28;19966;-60
2023/11/27 05:01:17;;;;;;;;;;;;;;;0.37;100.00;100121.47;5057647;28;20317;-57
2023/11/27 05:03:44;;;;;;;;;;;;;;;0.34;100.00;100122.38;5067876;28;20042;-56
2023/11/27 05:06:14;;;;;;;;;;;;;;;0.37;100.00;100124.06;5068477;28;19932;-56
2023/11/27 05:08:42;;;;;;;;;;;;;;;0.34;100.00;100121.53;5067679;28;20279;-59
2023/11/27 05:11:15;;;;;;;;;;;;;;;0.34;100.00;100121.53;5059311;28;19925;-58
2023/11/27 05:13:43;;;;;;;;;;;;;;;0.33;100.00;100120.69;5064491;28;19931;-61
2023/11/27 05:16:10;;;;;;;;;;;;;;;0.33;100.00;100119.84;5057943;28;19932;-59
2023/11/27 05:18:38;;;;;;;;;;;;;;;0.36;100.00;100118.03;5065266;28;19947;-62
2023/11/27 05:21:05;;;;;;;;;;;;;;;0.41;100.00;100116.19;5057298;28;19966;-62
2023/11/27 05:23:32;;;;;;;;;;;;;;;0.41;100.00;100117.91;5057433;28;19933;-63
2023/11/27 05:26:00;;;;;;;;;;;;;;;0.42;100.00;100104.91;5055939;28;20406;-64
2023/11/27 05:28:29;;;;;;;;;;;;;;;0.43;100.00;100106.63;5039983;28;19925;-64
2023/11/27 05:30:58;;;;;;;;;;;;;;;0.43;100.00;100111.78;5040218;28;19924;-64
2023/11/27 05:33:25;;;;;;;;;;;;;;;0.46;100.00;100110.88;5058911;28;19924;-63
2023/11/27 05:35:55;;;;;;;;;;;;;;;0.57;100.00;100111.44;5060236;28;19989;-64
2023/11/27 05:38:23;;;;;;;;;;;;;;;0.61;100.00;100107.88;5055552;28;20370;-60
2023/11/27 05:40:52;;;;;;;;;;;;;;;0.58;100.00;100107.09;5060423;28;19924;-62
2023/11/27 05:43:20;;;;;;;;;;;;;;;0.53;100.00;100091.69;5060509;28;19985;-63
2023/11/27 05:45:47;;;;;;;;;;;;;;;0.58;100.00;100088.97;5061956;28;19928;-60
2023/11/27 05:48:14;;;;;;;;;;;;;;;0.62;100.00;100086.25;5060361;28;19937;-63
2023/11/27 05:50:41;;;;;;;;;;;;;;;0.65;100.00;100087.94;5064681;28;20386;-61
2023/11/27 05:53:09;;;;;;;;;;;;;;;0.67;100.00;100086.13;5066229;28;20306;-61
2023/11/27 05:55:36;;;;;;;;;;;;;;;0.69;100.00;100086.97;5069694;28;19984;-62
2023/11/27 05:58:06;;;;;;;;;;;;;;;0.67;100.00;100088.72;5062100;28;19932;-62
2023/11/27 06:00:33;;;;;;;;;;;;;;;0.62;100.00;100081.06;5067710;28;19980;-63
2023/11/27 06:03:00;;;;;;;;;;;;;;;0.62;100.00;100078.47;5064537;28;19935;-63
2023/11/27 06:05:28;;;;;;;;;;;;;;;0.55;100.00;100083.88;5067653;28;19936;-60
2023/11/27 06:07:55;;;;;;;;;;;;;;;0.57;100.00;100082.94;5060337;28;20008;-64
2023/11/27 06:10:22;;;;;;;;;;;;;;;0.59;100.00;100076.00;5071813;28;20182;-63
2023/11/27 06:12:50;;;;;;;;;;;;;;;0.59;100.00;100081.19;5060460;28;20472;-63
2023/11/27 06:15:17;;;;;;;;;;;;;;;0.61;100.00;100078.53;5063694;28;19931;-62
2023/11/27 06:17:44;;;;;;;;;;;;;;;0.64;100.00;100075.88;5062990;28;19931;-63
2023/11/27 06:20:12;;;;;;;;;;;;;;;0.63;100.00;100079.34;5054134;28;20019;-62
2023/11/27 06:22:39;;;;;;;;;;;;;;;0.62;100.00;100088.00;5054440;28;19958;-64
2023/11/27 06:25:07;;;;;;;;;;;;;;;0.61;100.00;100081.13;5056033;28;20314;-62
2023/11/27 06:27:34;;;;;;;;;;;;;;;0.62;100.00;100081.06;5057394;28;20394;-61
2023/11/27 06:30:01;;;;;;;;;;;;;;;0.67;100.00;100078.34;5061949;28;20334;-62
2023/11/27 06:32:29;;;;;;;;;;;;;;;0.64;100.00;100084.50;5055385;28;19950;-61
2023/11/27 06:34:56;;;;;;;;;;;;;;;0.66;100.00;100082.69;5056309;28;19934;-61
2023/11/27 06:37:23;;;;;;;;;;;;;;;0.67;100.00;100083.53;5054918;28;19928;-61
2023/11/27 06:39:51;;;;;;;;;;;;;;;0.66;100.00;100076.66;5064318;28;19924;-63
2023/11/27 06:42:18;;;;;;;;;;;;;;;0.66;100.00;100071.50;5071367;28;19984;-63
2023/11/27 06:44:45;;;;;;;;;;;;;;;0.63;100.00;100062.06;5074662;28;19987;-59
2023/11/27 06:47:12;;;;;;;;;;;;;;;0.64;100.00;100052.56;5066885;28;20388;-62
2023/11/27 06:49:40;;;;;;;;;;;;;;;0.64;100.00;100061.19;5063206;28;20407;-62
2023/11/27 06:52:07;;;;;;;;;;;;;;;0.66;100.00;100063.72;5058159;28;19970;-62
2023/11/27 06:54:34;;;;;;;;;;;;;;;0.69;100.00;100076.59;5055073;28;20537;-62
2023/11/27 06:57:01;;;;;;;;;;;;;;;0.68;100.00;100067.13;5055322;28;19932;-60
2023/11/27 06:59:28;;;;;;;;;;;;;;;0.72;100.00;100053.19;5065980;28;19924;-60
2023/11/27 07:01:55;;;;;;;;;;;;;;;0.78;100.00;100059.94;5060131;28;19929;-62
2023/11/27 07:04:23;;;;;;;;;;;;;;;0.80;100.00;100055.56;5056644;28;19928;-62
2023/11/27 07:06:51;;;;;;;;;;;;;;;0.85;100.00;100062.31;5065078;28;19924;-62
2023/11/27 07:09:18;;;;;;;;;;;;;;;0.80;100.00;100061.59;5062738;28;19924;-64
2023/11/27 07:11:46;;;;;;;;;;;;;;;0.82;100.00;100067.59;5051288;28;20299;-59
2023/11/27 07:14:13;;;;;;;;;;;;;;;0.88;100.00;100062.22;5060908;28;19935;-62
2023/11/27 07:16:41;;;;;;;;;;;;;;;0.91;100.00;100063.91;5075149;28;19985;-59
2023/11/27 07:19:11;;;;;;;;;;;;;;;0.95;100.00;100068.09;5065221;28;19966;-60
2023/11/27 07:21:38;;;;;;;;;;;;;;;1.00;100.00;100072.25;5052218;28;20432;-62
2023/11/27 07:24:06;;;;;;;;;;;;;;;1.05;100.00;100069.53;5066475;28;19924;-60
2023/11/27 07:26:33;;;;;;;;;;;;;;;1.00;100.00;100066.22;5062296;28;19992;-61
2023/11/27 07:29:01;;;;;;;;;;;;;;;1.02;100.00;100061.84;5061579;28;19928;-62
2023/11/27 07:31:30;;;;;;;;;;;;;;;1.01;100.00;100063.59;5050298;28;19925;-61
2023/11/27 07:33:57;;;;;;;;;;;;;;;1.05;100.00;100056.56;5055978;28;19924;-61
2023/11/27 07:36:27;;;;;;;;;;;;;;;1.09;100.00;100053.00;5065182;28;19969;-61
2023/11/27 07:38:54;;;;;;;;;;;;;;;1.06;100.00;100053.06;5062874;28;19929;-60
2023/11/27 07:41:22;;;;;;;;;;;;;;;1.01;100.00;100052.38;5065338;28;20001;-61
2023/11/27 07:43:50;;;;;;;;;;;;;;;0.99;100.00;100054.13;5056259;28;19924;-60
2023/11/27 07:46:18;;;;;;;;;;;;;;;1.01;100.00;100049.78;5055514;28;19929;-60
2023/11/27 07:48:46;;;;;;;;;;;;;;;1.04;100.00;100041.03;5061624;28;19985;-63
2023/11/27 07:51:13;;;;;;;;;;;;;;;1.07;100.00;100056.53;5061353;28;19929;-64
2023/11/27 07:53:41;;;;;;;;;;;;;;;1.05;100.00;100053.13;5061173;28;19974;-59
2023/11/27 07:56:08;;;;;;;;;;;;;;;1.04;100.00;100051.41;5062711;28;19931;-60
2023/11/27 07:58:55;;;;;;;;;;;;;;;1.04;100.00;100046.22;5054590;28;19932;-61
2023/11/27 08:01:42;;;;;;;;;;;;;;;1.08;100.00;100045.25;5060495;28;19928;-60
2023/11/27 08:04:32;;;;;;;;;;;;;;;1.04;100.00;100043.63;5068719;28;19965;-59
2023/11/27 08:07:06;;;;;;;;;;;;;;;1.08;100.00;100043.53;5061122;28;20017;-61
2023/11/27 08:09:33;;;;;;;;;;;;;;;1.10;100.00;100038.28;5054874;28;19932;-60
2023/11/27 08:12:01;;;;;;;;;;;;;;;1.11;100.00;100042.56;5063603;28;20413;-62
2023/11/27 08:14:28;;;;;;;;;;;;;;;1.09;100.00;100034.84;5063781;28;19984;-60
2023/11/27 08:16:55;;;;;;;;;;;;;;;1.02;100.00;100036.75;5062408;28;20313;-61
2023/11/27 08:19:22;;;;;;;;;;;;;;;1.01;100.00;100040.25;5061234;28;19924;-61
2023/11/27 08:21:50;;;;;;;;;;;;;;;1.03;100.00;100040.19;5064159;28;20345;-58
2023/11/27 08:24:17;;;;;;;;;;;;;;;1.06;100.00;100039.28;5064802;28;19940;-60
2023/11/27 08:26:49;;;;;;;;;;;;;;;1.07;100.00;100036.63;5065442;28;19924;-61
2023/11/27 08:29:17;;;;;;;;;;;;;;;1.04;100.00;100035.84;5062806;28;20372;-61
2023/11/27 08:31:45;;;;;;;;;;;;;;;1.05;100.00;100033.25;5060189;28;20311;-59
2023/11/27 08:34:13;;;;;;;;;;;;;;;1.10;100.00;100030.50;5049548;28;19933;-60
2023/11/27 08:36:40;;;;;;;;;;;;;;;1.09;100.00;100032.25;5056911;28;19936;-60
2023/11/27 08:39:11;;;;;;;;;;;;;;;1.11;100.00;100027.03;5060759;28;19925;-64
2023/11/27 08:41:38;;;;;;;;;;;;;;;1.14;100.00;100026.94;5063581;28;20510;-61
2023/11/27 08:44:08;;;;;;;;;;;;;;;1.19;100.00;100036.28;5057025;28;19925;-62
2023/11/27 08:46:36;;;;;;;;;;;;;;;1.23;100.00;100034.44;5056889;28;19932;-61
2023/11/27 08:49:06;;;;;;;;;;;;;;;1.16;100.00;100032.91;5061597;28;19932;-59
2023/11/27 08:51:33;;;;;;;;;;;;;;;1.22;100.00;100032.75;5059987;28;19929;-59
2023/11/27 08:54:00;;;;;;;;;;;;;;;1.19;100.00;100025.06;5069499;28;19924;-61
2023/11/27 08:56:33;;;;;;;;;;;;;;;1.24;100.00;100024.00;5067349;28;20097;-60
2023/11/27 08:59:01;;;;;;;;;;;;;;;1.27;100.00;100016.16;5066034;28;19924;-61
2023/11/27 09:01:28;;;;;;;;;;;;;;;1.17;100.00;100016.47;5070190;28;19924;-57
2023/11/27 09:03:56;;;;;;;;;;;;;;;1.23;100.00;100004.16;5068043;28;20382;-61
2023/11/27 09:06:23;;;;;;;;;;;;;;;1.25;100.00;100006.72;5085427;28;19932;-57
2023/11/27 09:08:52;;;;;;;;;;;;;;;1.24;100.00;100003.28;5061701;28;20149;-61
2023/11/27 09:11:19;;;;;;;;;;;;;;;1.28;100.00;100001.44;5069745;28;19925;-59
2023/11/27 09:13:50;;;;;;;;;;;;;;;1.34;100.00;99993.47;5057339;28;20409;-60
2023/11/27 09:16:17;;;;;;;;;;;;;;;1.31;100.00;99985.78;5062850;28;19994;-59
2023/11/27 09:18:44;;;;;;;;;;;;;;;1.35;100.00;99979.63;5055697;28;19939;-59
2023/11/27 09:21:11;;;;;;;;;;;;;;;1.43;100.00;99981.94;5046577;28;19924;-61
2023/11/27 09:23:39;;;;;;;;;;;;;;;1.51;100.00;99982.56;5066500;28;19925;-61
2023/11/27 09:26:06;;;;;;;;;;;;;;;1.51;99.83;99987.75;5056999;28;19931;-62
2023/11/27 09:28:33;;;;;;;;;;;;;;;1.45;99.24;99985.34;5057865;28;19959;-60
2023/11/27 09:31:01;;;;;;;;;;;;;;;1.52;99.41;99992.03;5061304;28;19977;-59
2023/11/27 09:33:28;;;;;;;;;;;;;;;1.64;99.93;99996.00;5066936;28;19935;-59
2023/11/27 09:35:57;;;;;;;;;;;;;;;1.65;98.82;99995.94;5059656;28;19925;-61
2023/11/27 09:38:25;;;;;;;;;;;;;;;1.68;98.40;99995.00;5064630;28;19992;-61
2023/11/27 09:40:52;;;;;;;;;;;;;;;1.69;98.23;99983.72;5045018;28;19948;-61
2023/11/27 09:43:19;;;;;;;;;;;;;;;1.78;97.95;99975.63;5046379;28;19993;-59
2023/11/27 09:45:47;;;;;;;;;;;;;;;1.89;97.81;99970.94;5066978;28;19929;-63
2023/11/27 09:48:15;;;;;;;;;;;;;;;1.94;97.41;99969.03;5064069;28;19935;-61
2023/11/27 09:50:44;;;;;;;;;;;;;;;2.11;97.16;99967.59;5055448;28;20343;-61
2023/11/27 09:53:11;;;;;;;;;;;;;;;2.09;96.40;99961.59;5063210;28;19925;-60
2023/11/27 09:55:38;;;;;;;;;;;;;;;2.26;96.14;99969.66;5049359;28;20368;-61
2023/11/27 09:58:06;;;;;;;;;;;;;;;2.34;94.40;99959.81;5059791;28;20356;-61
2023/11/27 10:00:33;;;;;;;;;;;;;;;2.47;95.10;99942.88;5073678;28;20375;-60
2023/11/27 10:03:01;;;;;;;;;;;;;;;2.59;94.53;99940.75;5063929;28;19925;-61
2023/11/27 10:05:29;;;;;;;;;;;;;;;2.52;93.62;99941.00;5067058;28;20288;-61
2023/11/27 10:07:57;;;;;;;;;;;;;;;2.53;92.91;99940.09;5082484;28;19977;-58
2023/11/27 10:10:27;;;;;;;;;;;;;;;2.63;94.20;99938.00;5058944;28;19925;-60
2023/11/27 10:12:57;;;;;;;;;;;;;;;2.62;93.08;99941.50;5076850;28;19950;-61
2023/11/27 10:15:30;;;;;;;;;;;;;;;2.74;93.27;99934.97;5075541;28;19969;-61
2023/11/27 10:17:58;;;;;;;;;;;;;;;2.82;93.82;99917.34;5080007;28;20428;-61
2023/11/27 10:20:28;;;;;;;;;;;;;;;2.94;92.32;99911.69;5064558;28;19947;-61
2023/11/27 10:22:56;;;;;;;;;;;;;;;2.85;90.87;99912.03;5064366;28;19977;-58
2023/11/27 10:25:29;;;;;;;;;;;;;;;2.86;91.16;99916.31;5053925;28;20405;-61
2023/11/27 10:28:02;;;;;;;;;;;;;;;2.81;90.75;99918.25;5059374;28;19924;-59
2023/11/27 10:30:30;;;;;;;;;;;;;;;2.74;91.38;99912.44;5057006;28;20365;-60
2023/11/27 10:32:57;;;;;;;;;;;;;;;2.71;91.29;99902.16;5059493;28;19924;-60
2023/11/27 10:35:25;;;;;;;;;;;;;;;2.73;91.05;99894.31;5063052;28;19925;-62
2023/11/27 10:37:56;;;;;;;;;;;;;;;2.74;91.53;99891.63;5059300;28;19928;-60
2023/11/27 10:40:27;;;;;;;;;;;;;;;2.85;90.95;99891.25;5053151;28;21232;-61
2023/11/27 10:43:00;;;;;;;;;;;;;;;2.87;90.73;99884.22;5055649;28;20512;-61
2023/11/27 10:45:29;;;;;;;;;;;;;;;2.82;91.47;99886.16;5056248;28;19954;-61
2023/11/27 10:47:57;;;;;;;;;;;;;;;2.74;91.30;99881.25;5040797;28;19937;-60
2023/11/27 10:50:25;;;;;;;;;;;;;;;2.73;92.19;99881.31;5059739;28;19930;-62
2023/11/27 10:52:52;;;;;;;;;;;;;;;2.83;92.19;99874.84;5039765;28;19932;-61
2023/11/27 10:55:20;;;;;;;;;;;;;;;2.94;91.88;99875.28;5045240;28;19931;-61
2023/11/27 10:57:47;;;;;;;;;;;;;;;2.97;91.54;99875.16;5059753;28;21177;-60
2023/11/27 11:00:18;;;;;;;;;;;;;;;2.90;91.84;99872.88;5078339;28;19965;-59
2023/11/27 11:02:50;;;;;;;;;;;;;;;2.79;92.30;99862.88;5071617;28;19939;-61
2023/11/27 11:05:21;;;;;;;;;;;;;;;2.83;92.50;99855.81;5062769;28;19929;-61
2023/11/27 11:07:50;;;;;;;;;;;;;;;2.87;94.40;99853.03;5081530;28;19929;-61
2023/11/27 11:10:17;;;;;;;;;;;;;;;2.98;93.56;99850.00;5048486;28;19925;-60
2023/11/27 11:12:44;;;;;;;;;;;;;;;3.00;93.54;99849.03;5063756;28;20019;-58
2023/11/27 11:15:13;;;;;;;;;;;;;;;3.02;92.26;99843.78;5041505;28;19969;-61
2023/11/27 11:17:44;;;;;;;;;;;;;;;2.83;92.16;99848.84;5057219;28;19925;-61
2023/11/27 11:20:25;;;;;;;;;;;;;;;2.89;92.62;99856.41;5062756;28;19925;-61
2023/11/27 11:23:13;;;;;;;;;;;;;;;2.91;92.29;99848.56;5061167;28;19934;-61
2023/11/27 11:25:48;;;;;;;;;;;;;;;2.88;92.56;99844.34;5053817;28;19939;-61
2023/11/27 11:28:16;;;;;;;;;;;;;;;2.76;92.57;99837.88;5070546;28;19932;-60
2023/11/27 11:30:44;;;;;;;;;;;;;;;2.72;93.15;99828.50;5061048;28;19925;-62
2023/11/27 11:33:17;;;;;;;;;;;;;;;2.69;92.94;99822.56;5056207;28;19944;-58
2023/11/27 11:35:54;;;;;;;;;;;;;;;2.53;93.29;99820.56;5049993;28;19935;-59
2023/11/27 11:38:21;;;;;;;;;;;;;;;2.56;93.70;99816.16;5062208;28;19936;-60
2023/11/27 11:40:48;;;;;;;;;;;;;;;2.56;94.68;99813.56;5075838;28;20004;-63
2023/11/27 11:43:17;;;;;;;;;;;;;;;2.53;93.97;99814.53;5073694;28;20004;-60
2023/11/27 11:45:46;;;;;;;;;;;;;;;2.48;94.00;99808.69;5060786;28;19954;-62
2023/11/27 11:48:15;;;;;;;;;;;;;;;2.47;93.80;99807.81;5055946;28;20866;-61
2023/11/27 11:50:42;;;;;;;;;;;;;;;2.49;94.50;99799.97;5060036;28;19932;-61
2023/11/27 11:53:18;;;;;;;;;;;;;;;2.40;94.80;99800.31;5065106;28;20604;-61
2023/11/27 11:55:50;;;;;;;;;;;;;;;2.28;95.45;99788.66;5070244;28;19934;-60
2023/11/27 11:58:17;;;;;;;;;;;;;;;2.25;95.68;99787.03;5061129;28;20005;-62
2023/11/27 12:00:45;;;;;;;;;;;;;;;2.27;96.05;99785.22;5049824;28;19924;-61
2023/11/27 12:03:16;;;;;;;;;;;;;;;2.18;96.73;99780.38;5083636;28;19940;-61
2023/11/27 12:05:57;;;;;;;;;;;;;;;2.22;96.61;99771.56;5074680;28;19964;-60
2023/11/27 12:08:26;;;;;;;;;;;;;;;2.24;96.10;99769.72;5077108;28;19986;-62
2023/11/27 12:10:54;;;;;;;;;;;;;;;2.26;96.67;99769.69;5057305;28;20015;-57
2023/11/27 12:13:23;;;;;;;;;;;;;;;2.22;96.71;99770.72;5059430;28;20283;-59
2023/11/27 12:15:51;;;;;;;;;;;;;;;2.21;96.33;99759.47;5063820;28;19947;-59
2023/11/27 12:18:19;;;;;;;;;;;;;;;2.24;96.93;99759.34;5050842;28;19930;-60
2023/11/27 12:20:48;;;;;;;;;;;;;;;2.36;98.16;99755.44;5075476;28;19980;-58
2023/11/27 12:23:15;;;;;;;;;;;;;;;2.41;98.21;99756.09;5068679;28;19925;-61
2023/11/27 12:25:42;;;;;;;;;;;;;;;2.42;97.58;99752.59;5081116;28;19962;-59
2023/11/27 12:28:10;;;;;;;;;;;;;;;2.37;96.71;99749.31;5069968;28;19925;-59
2023/11/27 12:30:38;;;;;;;;;;;;;;;2.35;97.27;99747.72;5061950;28;19929;-58
2023/11/27 12:33:07;;;;;;;;;;;;;;;2.32;97.18;99747.81;5061253;28;19938;-60
2023/11/27 12:35:34;;;;;;;;;;;;;;;2.28;97.17;99744.50;5048959;28;19953;-59
2023/11/27 12:38:03;;;;;;;;;;;;;;;2.25;97.39;99735.09;5062629;28;20065;-63
2023/11/27 12:40:33;;;;;;;;;;;;;;;2.20;98.04;99737.00;5063156;28;19924;-61
2023/11/27 12:43:04;;;;;;;;;;;;;;;2.20;97.76;99734.41;5067232;28;20066;-59
2023/11/27 12:45:32;;;;;;;;;;;;;;;2.22;97.69;99734.34;5066597;28;19951;-58
2023/11/27 12:48:06;;;;;;;;;;;;;;;2.22;98.09;99726.56;5076833;28;20424;-59